Time;durP1;ratioP1;P1;durP2;ratioP2;P2;SDS_P1;SDS_P2;PMS_P1;PMS_P2;Temp;Humidity;BMP_temperature;BMP_pressure;BME280_temperature;BME280_humidity;BME280_pressure;Samples;Min_cycle;Max_cycle;Signal;HPM_P1;HPM_P2
2023/09/06 00:01:45;;;;;;;9.82;7.80;;;16.40;99.90;;;;;;5010235;28;20070;-71
2023/09/06 00:04:14;;;;;;;8.82;7.93;;;16.30;99.90;;;;;;5012605;28;20050;-72
2023/09/06 00:06:41;;;;;;;9.15;8.25;;;16.30;99.90;;;;;;5007892;28;20482;-72
2023/09/06 00:09:10;;;;;;;9.88;8.52;;;16.30;99.90;;;;;;5010244;28;20042;-72
2023/09/06 00:11:39;;;;;;;9.43;8.40;;;16.20;99.90;;;;;;5014078;28;20053;-72
2023/09/06 00:14:07;;;;;;;13.38;9.05;;;16.20;99.90;;;;;;4973687;28;20514;-72
2023/09/06 00:16:34;;;;;;;11.02;8.60;;;16.20;99.90;;;;;;5011905;28;20111;-72
2023/09/06 00:19:02;;;;;;;9.35;8.43;;;16.20;99.90;;;;;;4979597;28;20064;-72
2023/09/06 00:21:30;;;;;;;9.88;8.88;;;16.20;99.90;;;;;;4994850;28;20050;-72
2023/09/06 00:23:58;;;;;;;10.93;8.75;;;16.10;99.90;;;;;;4983407;28;20064;-72
2023/09/06 00:26:26;;;;;;;9.70;8.63;;;16.10;99.90;;;;;;5007402;28;20056;-72
2023/09/06 00:28:54;;;;;;;12.48;8.05;;;16.10;99.90;;;;;;4996708;28;20046;-73
2023/09/06 00:31:21;;;;;;;10.43;8.50;;;16.00;99.90;;;;;;5012390;28;20149;-73
2023/09/06 00:33:49;;;;;;;8.93;7.97;;;16.00;99.90;;;;;;5013142;28;20052;-72
2023/09/06 00:36:16;;;;;;;10.05;8.73;;;15.90;99.90;;;;;;4992273;28;20046;-72
2023/09/06 00:38:45;;;;;;;9.05;8.15;;;15.90;99.90;;;;;;5009823;28;20034;-73
2023/09/06 00:41:12;;;;;;;10.50;7.63;;;15.90;99.90;;;;;;4978823;28;20049;-73
2023/09/06 00:43:42;;;;;;;11.30;8.40;;;15.80;99.90;;;;;;5010145;28;20205;-73
2023/09/06 00:46:10;;;;;;;9.10;8.00;;;15.80;99.90;;;;;;5001699;28;20159;-73
2023/09/06 00:48:37;;;;;;;11.52;8.15;;;15.80;99.90;;;;;;5008764;28;20522;-73
2023/09/06 00:51:07;;;;;;;9.60;8.18;;;15.80;99.90;;;;;;5011661;28;20081;-73
2023/09/06 00:53:34;;;;;;;10.02;8.23;;;15.70;99.90;;;;;;4975537;28;20521;-73
2023/09/06 00:56:08;;;;;;;10.95;8.65;;;15.70;99.90;;;;;;4991769;28;20042;-73
2023/09/06 00:58:38;;;;;;;12.38;8.32;;;15.70;99.90;;;;;;4996443;28;20445;-73
2023/09/06 01:01:05;;;;;;;10.93;8.68;;;15.60;99.90;;;;;;4991661;28;20037;-72
2023/09/06 01:03:33;;;;;;;11.05;8.25;;;15.60;99.90;;;;;;4993645;28;20057;-72
2023/09/06 01:06:07;;;;;;;9.32;7.80;;;15.60;99.90;;;;;;5013508;28;20050;-72
2023/09/06 01:08:47;;;;;;;9.38;7.80;;;15.60;99.90;;;;;;5004751;28;20117;-73
2023/09/06 01:11:23;;;;;;;11.38;8.27;;;15.60;99.90;;;;;;5007773;28;20068;-73
2023/09/06 01:13:54;;;;;;;11.27;8.65;;;15.60;99.90;;;;;;4986374;28;20124;-73
2023/09/06 01:16:48;;;;;;;10.02;8.15;;;15.60;99.90;;;;;;5006840;28;20102;-72
2023/09/06 01:19:18;;;;;;;10.27;7.82;;;15.60;99.90;;;;;;4979427;28;20046;-73
2023/09/06 01:21:56;;;;;;;9.35;8.00;;;15.60;99.90;;;;;;4990246;28;20057;-73
2023/09/06 01:24:25;;;;;;;10.77;8.30;;;15.50;99.90;;;;;;4990855;28;20052;-73
2023/09/06 01:26:52;;;;;;;11.50;8.35;;;15.50;99.90;;;;;;4990451;28;20054;-73
2023/09/06 01:29:20;;;;;;;9.15;7.60;;;15.50;99.90;;;;;;4980914;28;20049;-73
2023/09/06 01:31:47;;;;;;;9.00;7.63;;;15.40;99.90;;;;;;5001658;28;20037;-73
2023/09/06 01:34:15;;;;;;;8.45;7.63;;;15.40;99.90;;;;;;4989548;28;20121;-73
2023/09/06 01:36:43;;;;;;;9.02;7.95;;;15.40;99.90;;;;;;4973507;28;20053;-73
2023/09/06 01:39:11;;;;;;;10.27;7.85;;;15.30;99.90;;;;;;4986949;28;20065;-73
2023/09/06 01:41:40;;;;;;;10.40;7.93;;;15.30;99.90;;;;;;4977397;28;20505;-73
2023/09/06 01:44:07;;;;;;;11.82;9.10;;;15.20;99.90;;;;;;5002606;28;20062;-73
2023/09/06 01:46:34;;;;;;;10.65;8.35;;;15.20;99.90;;;;;;5006055;28;20514;-73
2023/09/06 01:49:02;;;;;;;9.88;7.80;;;15.20;99.90;;;;;;4976919;28;20062;-73
2023/09/06 01:51:31;;;;;;;10.43;8.43;;;15.20;99.90;;;;;;4988563;28;20053;-73
2023/09/06 01:54:01;;;;;;;10.13;7.88;;;15.20;99.90;;;;;;4974647;28;20049;-74
2023/09/06 01:56:28;;;;;;;9.40;7.38;;;15.20;99.90;;;;;;5005278;28;20404;-73
2023/09/06 01:58:56;;;;;;;9.63;7.75;;;15.20;99.90;;;;;;4990332;28;20041;-73
2023/09/06 02:01:23;;;;;;;8.27;6.78;;;15.20;99.90;;;;;;5003062;28;20042;-73
2023/09/06 02:03:51;;;;;;;9.00;7.55;;;15.20;99.90;;;;;;4990048;28;20042;-72
2023/09/06 02:06:18;;;;;;;10.82;7.78;;;15.20;99.90;;;;;;5005675;28;20046;-73
2023/09/06 02:08:46;;;;;;;12.10;7.18;;;15.20;99.90;;;;;;4993043;28;20360;-73
2023/09/06 02:11:16;;;;;;;11.77;7.82;;;15.30;99.90;;;;;;4988510;28;20054;-73
2023/09/06 02:13:44;;;;;;;9.00;7.43;;;15.30;99.90;;;;;;5003069;28;20041;-73
2023/09/06 02:16:12;;;;;;;9.57;7.50;;;15.30;99.90;;;;;;4988866;28;20498;-73
2023/09/06 02:18:39;;;;;;;9.73;8.07;;;15.30;99.90;;;;;;4972623;28;20120;-73
2023/09/06 02:21:06;;;;;;;12.43;8.15;;;15.30;99.90;;;;;;5006533;28;20038;-73
2023/09/06 02:23:35;;;;;;;9.85;7.75;;;15.30;99.90;;;;;;4989906;28;20502;-73
2023/09/06 02:26:03;;;;;;;9.50;7.68;;;15.30;99.90;;;;;;4990655;28;20070;-72
2023/09/06 02:28:30;;;;;;;10.50;7.40;;;15.20;99.90;;;;;;4974788;28;20140;-73
2023/09/06 02:30:59;;;;;;;12.00;7.43;;;15.20;99.90;;;;;;4994271;28;20048;-73
2023/09/06 02:33:28;;;;;;;10.20;7.18;;;15.10;99.90;;;;;;4975573;28;20666;-73
2023/09/06 02:35:55;;;;;;;10.68;7.80;;;15.00;99.90;;;;;;4996192;28;20046;-72
2023/09/06 02:38:26;;;;;;;9.20;7.78;;;15.00;99.90;;;;;;4992443;28;20473;-73
2023/09/06 02:40:54;;;;;;;9.70;7.32;;;14.90;99.90;;;;;;4992075;28;20053;-73
2023/09/06 02:43:22;;;;;;;13.35;8.43;;;14.90;99.90;;;;;;4994894;28;20561;-73
2023/09/06 02:45:53;;;;;;;11.13;9.00;;;14.80;99.90;;;;;;5007356;28;20410;-73
2023/09/06 02:48:21;;;;;;;11.45;8.32;;;14.80;99.90;;;;;;5007618;28;20054;-73
2023/09/06 02:50:49;;;;;;;9.82;8.13;;;14.70;99.90;;;;;;5011248;28;20061;-73
2023/09/06 02:53:22;;;;;;;10.07;8.07;;;14.70;99.90;;;;;;4993813;28;20046;-73
2023/09/06 02:55:53;;;;;;;10.45;8.23;;;14.60;99.90;;;;;;4991082;28;20069;-74
2023/09/06 02:58:23;;;;;;;9.32;7.50;;;14.60;99.90;;;;;;4992072;28;20046;-72
2023/09/06 03:00:58;;;;;;;9.48;8.45;;;14.50;99.90;;;;;;4992150;28;20046;-73
2023/09/06 03:03:26;;;;;;;10.38;8.25;;;14.50;99.90;;;;;;4995746;28;20112;-73
2023/09/06 03:05:57;;;;;;;8.63;7.72;;;14.50;99.90;;;;;;4993428;28;20533;-73
2023/09/06 03:08:27;;;;;;;14.60;8.10;;;14.50;99.90;;;;;;5001008;28;20046;-73
2023/09/06 03:10:56;;;;;;;11.63;8.10;;;14.40;99.90;;;;;;4993940;28;20387;-73
2023/09/06 03:13:24;;;;;;;14.02;8.82;;;14.40;99.90;;;;;;5008815;28;20034;-73
2023/09/06 03:15:53;;;;;;;10.18;8.80;;;14.30;99.90;;;;;;5007039;28;20061;-73
2023/09/06 03:18:22;;;;;;;9.90;8.43;;;14.30;99.90;;;;;;5010834;28;20056;-73
2023/09/06 03:20:55;;;;;;;9.82;8.13;;;14.20;99.90;;;;;;4976403;28;20355;-72
2023/09/06 03:23:25;;;;;;;11.45;8.55;;;14.30;99.90;;;;;;4981612;28;20053;-71
2023/09/06 03:25:55;;;;;;;10.68;8.43;;;14.20;99.90;;;;;;4993170;28;20415;-73
2023/09/06 03:28:28;;;;;;;9.70;8.45;;;14.20;99.90;;;;;;4983442;28;20058;-71
2023/09/06 03:31:00;;;;;;;10.13;7.82;;;14.20;99.90;;;;;;4992197;28;20051;-73
2023/09/06 03:33:29;;;;;;;11.60;8.50;;;14.20;99.90;;;;;;4982539;28;20050;-72
2023/09/06 03:35:57;;;;;;;11.90;8.35;;;14.20;99.90;;;;;;4991422;28;20042;-72
2023/09/06 03:38:25;;;;;;;9.38;8.27;;;14.10;99.90;;;;;;5008669;28;20038;-73
2023/09/06 03:41:02;;;;;;;9.13;8.15;;;14.10;99.90;;;;;;4990393;28;20053;-72
2023/09/06 03:43:32;;;;;;;10.85;7.85;;;14.10;99.90;;;;;;4960935;28;20140;-72
2023/09/06 03:46:07;;;;;;;10.30;7.10;;;14.10;99.90;;;;;;4992082;28;20129;-72
2023/09/06 03:48:35;;;;;;;11.50;8.13;;;14.10;99.90;;;;;;4990035;28;20042;-73
2023/09/06 03:51:04;;;;;;;8.82;7.68;;;14.10;99.90;;;;;;4992144;28;20049;-73
2023/09/06 03:53:33;;;;;;;13.40;9.80;;;14.10;99.90;;;;;;4992020;28;20053;-73
2023/09/06 03:56:01;;;;;;;12.15;9.90;;;14.10;99.90;;;;;;4975704;28;20045;-72
2023/09/06 03:58:41;;;;;;;12.68;10.00;;;14.10;99.90;;;;;;4991735;28;20050;-73
2023/09/06 04:01:10;;;;;;;12.50;9.25;;;14.10;99.90;;;;;;5008632;28;20038;-72
2023/09/06 04:03:41;;;;;;;;;;;14.10;99.90;;;;;;4991291;28;20100;-73
2023/09/06 04:06:11;;;;;;;12.10;9.68;;;14.10;99.90;;;;;;4992102;28;20048;-72
2023/09/06 04:08:39;;;;;;;12.70;9.75;;;14.10;99.90;;;;;;4991495;28;20054;-72
2023/09/06 04:11:09;;;;;;;12.15;9.02;;;14.10;99.90;;;;;;4975581;28;20414;-74
2023/09/06 04:13:40;;;;;;;15.52;8.85;;;14.00;99.90;;;;;;4975067;28;20054;-73
2023/09/06 04:16:09;;;;;;;12.75;9.43;;;14.00;99.90;;;;;;4988442;28;20529;-73
2023/09/06 04:18:38;;;;;;;9.70;8.35;;;14.00;99.90;;;;;;4995145;28;20498;-73
2023/09/06 04:21:08;;;;;;;9.55;7.93;;;14.00;99.90;;;;;;4988096;28;20057;-73
2023/09/06 04:23:40;;;;;;;11.98;8.52;;;14.10;99.90;;;;;;4988489;28;20054;-73
2023/09/06 04:26:10;;;;;;;13.68;8.68;;;14.10;99.90;;;;;;4972929;28;20112;-73
2023/09/06 04:28:37;;;;;;;11.65;8.68;;;14.10;99.90;;;;;;4992177;28;20045;-73
2023/09/06 04:31:09;;;;;;;11.75;8.93;;;14.10;99.90;;;;;;4989013;28;20042;-73
2023/09/06 04:33:41;;;;;;;12.07;8.15;;;14.10;99.90;;;;;;4991751;28;20038;-72
2023/09/06 04:36:29;;;;;;;10.25;8.20;;;14.00;99.90;;;;;;4986365;28;20045;-73
2023/09/06 04:39:01;;;;;;;10.55;8.27;;;14.00;99.90;;;;;;4982292;28;20761;-72
2023/09/06 04:41:32;;;;;;;11.30;8.52;;;13.90;99.90;;;;;;4993013;28;20041;-73
2023/09/06 04:44:04;;;;;;;15.35;10.40;;;13.90;99.90;;;;;;4974614;28;20068;-72
2023/09/06 04:46:32;;;;;;;15.57;10.40;;;13.90;99.90;;;;;;4990330;28;20321;-73
2023/09/06 04:49:00;;;;;;;12.68;9.60;;;14.00;99.90;;;;;;4991855;28;20493;-73
2023/09/06 04:51:29;;;;;;;13.68;10.25;;;14.00;99.90;;;;;;4971647;28;20053;-71
2023/09/06 04:54:00;;;;;;;19.50;13.23;;;14.10;99.90;;;;;;4974669;28;20124;-73
2023/09/06 04:56:34;;;;;;;12.80;9.65;;;14.10;99.90;;;;;;4972010;28;20061;-72
2023/09/06 04:59:02;;;;;;;14.85;8.75;;;14.10;99.90;;;;;;4973349;28;20601;-74
2023/09/06 05:01:30;;;;;;;11.52;8.05;;;14.20;99.90;;;;;;4969660;28;20052;-74
2023/09/06 05:03:58;;;;;;;11.23;8.18;;;14.10;99.90;;;;;;5006105;28;20533;-73
2023/09/06 05:06:27;;;;;;;9.63;7.72;;;14.20;99.90;;;;;;4995650;28;20042;-73
2023/09/06 05:08:55;;;;;;;10.48;7.97;;;14.20;99.90;;;;;;5006516;28;20137;-73
2023/09/06 05:11:24;;;;;;;11.18;8.15;;;14.20;99.90;;;;;;4984650;28;20046;-73
2023/09/06 05:13:52;;;;;;;9.00;7.47;;;14.30;99.90;;;;;;4973476;28;20502;-73
2023/09/06 05:16:21;;;;;;;10.75;8.10;;;14.30;99.90;;;;;;4975681;28;20496;-73
2023/09/06 05:18:50;;;;;;;10.60;8.13;;;14.40;99.90;;;;;;5008707;28;20429;-73
2023/09/06 05:21:22;;;;;;;11.65;8.27;;;14.40;99.90;;;;;;4992467;28;20038;-73
2023/09/06 05:23:50;;;;;;;10.68;7.75;;;14.50;99.90;;;;;;4978384;28;20096;-73
2023/09/06 05:26:17;;;;;;;11.45;8.20;;;14.50;99.90;;;;;;4974807;28;20112;-73
2023/09/06 05:28:48;;;;;;;10.07;7.88;;;14.60;99.90;;;;;;4992383;28;20042;-73
2023/09/06 05:31:18;;;;;;;11.32;8.60;;;14.70;99.90;;;;;;4993662;28;20557;-73
2023/09/06 05:33:48;;;;;;;10.47;8.33;;;14.70;99.90;;;;;;5009627;28;20068;-73
2023/09/06 05:36:19;;;;;;;11.30;8.77;;;14.80;99.90;;;;;;4994567;28;20073;-73
2023/09/06 05:38:49;;;;;;;15.15;10.00;;;14.90;99.90;;;;;;4989876;28;20117;-74
2023/09/06 05:41:19;;;;;;;12.45;9.48;;;14.90;99.90;;;;;;4996758;28;20522;-74
2023/09/06 05:43:46;;;;;;;12.65;9.30;;;14.90;99.90;;;;;;4973278;28;20100;-73
2023/09/06 05:46:15;;;;;;;12.63;9.52;;;14.90;99.90;;;;;;4971620;28;20052;-73
2023/09/06 05:49:09;;;;;;;13.10;8.77;;;15.00;99.90;;;;;;4988790;28;20050;-72
2023/09/06 05:51:40;;;;;;;12.88;8.45;;;15.00;99.90;;;;;;4994768;28;20430;-73
2023/09/06 05:54:09;;;;;;;12.15;8.60;;;15.10;99.90;;;;;;4977423;28;20049;-71
2023/09/06 05:56:39;;;;;;;16.83;9.38;;;15.10;99.90;;;;;;4987691;28;20499;-72
2023/09/06 05:59:07;;;;;;;13.57;9.48;;;15.20;99.90;;;;;;4992251;28;20034;-72
2023/09/06 06:01:35;;;;;;;16.08;8.70;;;15.20;99.90;;;;;;4993494;28;20054;-72
2023/09/06 06:04:03;;;;;;;12.05;8.93;;;15.20;99.90;;;;;;4978703;28;20050;-71
2023/09/06 06:06:30;;;;;;;13.75;9.10;;;15.30;99.90;;;;;;4983341;28;20140;-72
2023/09/06 06:08:58;;;;;;;12.10;9.85;;;15.40;99.90;;;;;;4995832;28;20502;-71
2023/09/06 06:11:26;;;;;;;11.80;8.82;;;15.40;99.90;;;;;;5009318;28;20049;-72
2023/09/06 06:13:54;;;;;;;11.35;9.23;;;15.50;99.90;;;;;;5012790;28;20038;-71
2023/09/06 06:16:37;;;;;;;;;;;15.60;99.90;;;;;;5012489;28;20533;-71
2023/09/06 06:19:06;;;;;;;13.88;8.32;;;15.60;99.90;;;;;;5011008;28;19921;-70
2023/09/06 06:21:33;;;;;;;11.20;8.18;;;15.70;99.90;;;;;;4994510;28;20089;-71
2023/09/06 06:24:01;;;;;;;10.93;8.15;;;15.80;99.90;;;;;;4993133;28;20141;-70
2023/09/06 06:26:29;;;;;;;11.63;7.88;;;15.90;99.90;;;;;;4993548;28;20053;-72
2023/09/06 06:28:56;;;;;;;13.63;8.65;;;15.90;99.90;;;;;;4993950;28;20100;-72
2023/09/06 06:31:24;;;;;;;14.50;8.70;;;16.00;99.90;;;;;;4995381;28;20064;-72
2023/09/06 06:33:53;;;;;;;11.57;7.88;;;16.10;99.90;;;;;;5013444;28;20127;-72
2023/09/06 06:36:21;;;;;;;13.20;8.45;;;16.20;99.90;;;;;;5013419;28;20108;-72
2023/09/06 06:38:48;;;;;;;10.25;8.27;;;16.30;99.90;;;;;;4995074;28;20120;-72
2023/09/06 06:41:22;;;;;;;17.48;10.98;;;16.30;99.90;;;;;;4998147;28;20052;-71
2023/09/06 06:43:50;;;;;;;19.35;11.07;;;16.50;99.90;;;;;;4991872;28;20046;-71
2023/09/06 06:46:29;;;;;;;11.32;8.45;;;16.60;99.90;;;;;;4992895;28;20486;-72
2023/09/06 06:48:57;;;;;;;11.40;7.80;;;16.70;99.90;;;;;;5010173;28;20037;-72
2023/09/06 06:51:35;;;;;;;10.73;7.45;;;16.80;99.90;;;;;;5000661;28;20560;-72
2023/09/06 06:54:08;;;;;;;15.02;10.23;;;16.90;99.90;;;;;;4981172;28;20548;-72
2023/09/06 06:56:37;;;;;;;14.07;10.02;;;17.10;99.90;;;;;;4993063;28;20056;-71
2023/09/06 06:59:07;;;;;;;11.98;9.18;;;17.20;99.90;;;;;;5014284;28;20065;-72
2023/09/06 07:01:35;;;;;;;12.80;7.40;;;17.30;99.90;;;;;;4997645;28;20173;-72
2023/09/06 07:04:05;;;;;;;8.63;7.18;;;17.50;99.90;;;;;;4994668;28;20057;-72
2023/09/06 07:06:33;;;;;;;8.48;7.15;;;17.60;99.90;;;;;;5016622;28;20125;-73
2023/09/06 07:09:03;;;;;;;8.77;6.90;;;17.70;99.90;;;;;;5011229;28;20046;-71
2023/09/06 07:11:31;;;;;;;8.85;7.38;;;17.80;99.90;;;;;;4990996;28;20039;-72
2023/09/06 07:13:59;;;;;;;7.63;6.82;;;17.90;99.90;;;;;;5013687;28;20104;-71
2023/09/06 07:16:28;;;;;;;10.13;7.75;;;18.00;99.90;;;;;;4990327;28;20475;-73
2023/09/06 07:18:58;;;;;;;10.00;7.30;;;18.10;99.90;;;;;;4992107;28;20069;-72
2023/09/06 07:21:26;;;;;;;10.63;7.32;;;18.10;99.90;;;;;;4993881;28;20045;-69
2023/09/06 07:23:53;;;;;;;8.85;7.22;;;18.30;99.90;;;;;;5009566;28;20052;-73
2023/09/06 07:26:21;;;;;;;11.10;8.00;;;18.40;99.90;;;;;;4992970;28;20938;-72
2023/09/06 07:28:49;;;;;;;9.55;7.85;;;18.40;99.90;;;;;;5010332;28;20042;-72
2023/09/06 07:31:17;;;;;;;10.27;8.45;;;18.60;99.90;;;;;;4993844;28;20103;-72
2023/09/06 07:33:45;;;;;;;18.17;13.57;;;18.60;99.90;;;;;;5009315;28;20560;-71
2023/09/06 07:36:14;;;;;;;11.38;8.70;;;18.80;99.90;;;;;;4983433;28;20076;-72
2023/09/06 07:38:41;;;;;;;14.80;7.95;;;18.80;99.90;;;;;;4993255;28;20137;-72
2023/09/06 07:41:09;;;;;;;7.95;7.15;;;19.00;99.90;;;;;;5011078;28;20037;-72
2023/09/06 07:43:37;;;;;;;10.02;8.07;;;19.10;99.90;;;;;;4993138;28;20050;-72
2023/09/06 07:46:09;;;;;;;8.68;7.07;;;19.20;99.90;;;;;;5012535;28;20167;-73
2023/09/06 07:48:38;;;;;;;9.80;7.72;;;19.30;99.90;;;;;;4992667;28;20541;-73
2023/09/06 07:51:07;;;;;;;12.10;9.13;;;19.40;99.90;;;;;;4993202;28;20153;-73
2023/09/06 07:53:35;;;;;;;12.43;9.32;;;19.50;99.90;;;;;;5009403;28;20399;-73
2023/09/06 07:56:05;;;;;;;9.23;8.23;;;19.60;99.90;;;;;;4975965;28;20596;-73
2023/09/06 07:58:33;;;;;;;10.15;7.93;;;19.70;99.90;;;;;;4993277;28;20053;-73
2023/09/06 08:01:01;;;;;;;9.68;7.65;;;19.80;99.90;;;;;;4991685;28;20056;-73
2023/09/06 08:03:46;;;;;;;9.25;7.95;;;19.90;99.90;;;;;;5007027;28;20045;-74
2023/09/06 08:06:14;;;;;;;10.35;7.47;;;20.00;99.90;;;;;;5008513;28;20506;-73
2023/09/06 08:08:42;;;;;;;10.80;8.00;;;20.10;99.90;;;;;;5008305;28;20055;-73
2023/09/06 08:11:10;;;;;;;8.75;7.82;;;20.30;99.90;;;;;;4989641;28;20557;-73
2023/09/06 08:13:38;;;;;;;9.27;8.13;;;20.40;99.90;;;;;;5008350;28;20050;-73
2023/09/06 08:16:06;;;;;;;11.70;9.27;;;20.50;99.90;;;;;;5010123;28;20041;-72
2023/09/06 08:18:35;;;;;;;11.18;8.15;;;20.60;99.90;;;;;;4995174;28;20041;-74
2023/09/06 08:21:03;;;;;;;11.23;9.50;;;20.70;99.90;;;;;;4992310;28;20121;-73
2023/09/06 08:23:31;;;;;;;8.98;7.93;;;20.80;99.90;;;;;;4997804;28;20534;-73
2023/09/06 08:25:59;;;;;;;8.73;7.70;;;20.90;99.90;;;;;;4993026;28;20034;-74
2023/09/06 08:28:31;;;;;;;8.82;7.90;;;21.00;99.90;;;;;;5007866;28;20038;-74
2023/09/06 08:31:01;;;;;;;9.15;8.13;;;21.10;99.90;;;;;;4976401;28;20481;-74
2023/09/06 08:33:29;;;;;;;9.32;7.93;;;21.20;99.90;;;;;;4991939;28;20087;-74
2023/09/06 08:35:58;;;;;;;8.35;7.50;;;21.20;99.90;;;;;;4992200;28;20528;-73
2023/09/06 08:38:27;;;;;;;8.13;7.32;;;21.30;99.90;;;;;;4967579;28;20568;-74
2023/09/06 08:40:55;;;;;;;12.65;7.57;;;21.40;99.90;;;;;;4996120;28;20145;-76
2023/09/06 08:43:27;;;;;;;9.27;8.38;;;21.50;99.90;;;;;;4992377;28;20100;-73
2023/09/06 08:45:56;;;;;;;8.75;7.70;;;21.60;99.90;;;;;;4974309;28;20065;-74
2023/09/06 08:48:27;;;;;;;11.55;8.55;;;21.70;99.90;;;;;;4991303;28;20082;-74
2023/09/06 08:50:56;;;;;;;8.95;8.05;;;21.80;99.90;;;;;;4990034;28;20121;-74
2023/09/06 08:53:23;;;;;;;10.10;8.10;;;21.90;99.90;;;;;;5008393;28;20042;-73
2023/09/06 08:55:51;;;;;;;9.02;8.20;;;22.00;99.90;;;;;;5009360;28;20436;-72
2023/09/06 08:58:19;;;;;;;9.82;8.25;;;22.10;99.90;;;;;;4992094;28;20050;-73
2023/09/06 09:00:47;;;;;;;9.30;8.40;;;22.20;99.90;;;;;;4991754;28;20127;-74
2023/09/06 09:03:14;;;;;;;9.38;8.57;;;22.30;99.90;;;;;;5008606;28;20042;-74
2023/09/06 09:05:42;;;;;;;19.23;15.27;;;22.40;99.90;;;;;;5006031;28;20113;-75
2023/09/06 09:08:09;;;;;;;10.13;9.10;;;22.50;99.90;;;;;;5007556;28;20493;-74
2023/09/06 09:10:37;;;;;;;9.27;7.63;;;22.60;99.90;;;;;;4990892;28;20042;-74
2023/09/06 09:13:12;;;;;;;9.45;8.45;;;22.70;99.90;;;;;;5009859;28;20362;-74
2023/09/06 09:15:40;;;;;;;8.18;7.45;;;22.70;99.90;;;;;;4991330;28;20553;-74
2023/09/06 09:18:15;;;;;;;8.80;8.00;;;22.80;99.90;;;;;;5009177;28;20525;-73
2023/09/06 09:20:43;;;;;;;11.13;7.65;;;23.00;99.90;;;;;;5005444;28;20059;-73
2023/09/06 09:23:16;;;;;;;9.27;7.93;;;23.00;99.90;;;;;;4991532;28;20038;-75
2023/09/06 09:25:51;;;;;;;8.73;7.88;;;23.10;99.90;;;;;;5006062;28;20041;-74
2023/09/06 09:28:18;;;;;;;9.15;7.82;;;23.20;99.90;;;;;;4990881;28;20519;-74
2023/09/06 09:30:47;;;;;;;8.95;8.00;;;23.30;99.90;;;;;;5006843;28;20064;-74
2023/09/06 09:33:15;;;;;;;11.23;8.68;;;23.50;99.90;;;;;;4991666;28;20061;-75
2023/09/06 09:35:44;;;;;;;9.55;7.70;;;23.60;99.90;;;;;;4990849;28;20046;-74
2023/09/06 09:38:12;;;;;;;9.85;8.23;;;23.80;99.90;;;;;;5008385;28;20042;-74
2023/09/06 09:40:39;;;;;;;8.75;7.72;;;23.90;99.90;;;;;;4989705;28;20050;-74
2023/09/06 09:43:20;;;;;;;8.80;8.00;;;24.10;99.90;;;;;;4992117;28;20413;-74
2023/09/06 09:45:48;;;;;;;13.57;8.43;;;24.30;99.90;;;;;;4996748;28;20061;-74
2023/09/06 09:48:16;;;;;;;9.27;8.38;;;24.40;99.90;;;;;;4990706;28;20042;-73
2023/09/06 09:50:46;;;;;;;20.92;14.50;;;24.50;99.90;;;;;;5008663;28;20046;-73
2023/09/06 09:53:16;;;;;;;15.60;10.70;;;24.60;99.90;;;;;;4991208;28;20313;-74
2023/09/06 09:56:07;;;;;;;9.57;8.07;;;24.80;99.90;;;;;;4991884;28;20045;-74
2023/09/06 09:58:37;;;;;;;8.95;7.78;;;24.90;99.90;;;;;;5005897;28;20042;-73
2023/09/06 10:01:06;;;;;;;11.32;8.52;;;25.00;99.90;;;;;;4988971;28;20170;-74
2023/09/06 10:03:34;;;;;;;8.82;7.93;;;25.10;99.90;;;;;;4975206;28;20141;-74
2023/09/06 10:06:04;;;;;;;9.20;8.27;;;25.20;99.90;;;;;;4990952;28;20532;-74
2023/09/06 10:08:33;;;;;;;11.23;9.48;;;25.30;99.90;;;;;;5008039;28;20117;-72
2023/09/06 10:11:00;;;;;;;10.35;8.15;;;25.50;99.90;;;;;;4991746;28;20050;-73
2023/09/06 10:13:29;;;;;;;10.38;8.10;;;25.80;99.90;;;;;;5005660;28;20510;-75
2023/09/06 10:15:57;;;;;;;9.65;8.65;;;25.90;99.90;;;;;;4976203;28;20033;-74
2023/09/06 10:18:25;;;;;;;9.65;8.65;;;25.90;99.90;;;;;;4978964;28;20104;-72
2023/09/06 10:20:54;;;;;;;9.63;8.65;;;26.10;99.90;;;;;;5000916;28;20156;-72
2023/09/06 10:23:22;;;;;;;8.77;7.97;;;26.20;99.90;;;;;;4987128;28;20058;-72
2023/09/06 10:25:51;;;;;;;10.88;9.23;;;26.20;99.90;;;;;;4989472;28;20073;-72
2023/09/06 10:28:23;;;;;;;9.25;8.30;;;26.30;99.90;;;;;;4988605;28;20477;-72
2023/09/06 10:30:57;;;;;;;9.02;8.23;;;26.40;99.90;;;;;;4990455;28;20050;-72
2023/09/06 10:33:37;;;;;;;9.40;8.50;;;26.50;99.90;;;;;;4989651;28;20061;-72
2023/09/06 10:36:15;;;;;;;9.68;8.82;;;26.60;99.90;;;;;;4991262;28;20060;-71
2023/09/06 10:38:55;;;;;;;10.55;9.60;;;26.90;99.90;;;;;;5006342;28;20073;-71
2023/09/06 10:41:27;;;;;;;9.90;9.00;;;27.30;99.90;;;;;;5006368;28;20357;-73
2023/09/06 10:44:03;;;;;;;8.90;8.20;;;27.50;99.90;;;;;;4990201;28;20045;-72
2023/09/06 10:46:33;;;;;;;9.85;8.85;;;27.80;99.90;;;;;;5004062;28;20107;-73
2023/09/06 10:49:23;;;;;;;12.10;9.07;;;27.90;99.90;;;;;;4991353;28;20093;-73
2023/09/06 10:52:08;;;;;;;8.93;8.02;;;28.00;99.90;;;;;;4974973;28;20049;-72
2023/09/06 10:54:44;;;;;;;9.57;8.68;;;28.10;99.90;;;;;;4990631;28;20054;-73
2023/09/06 10:57:14;;;;;;;9.00;8.10;;;28.20;99.90;;;;;;5012541;28;20509;-73
2023/09/06 10:59:45;;;;;;;9.75;8.90;;;28.50;99.90;;;;;;5009539;28;20104;-73
2023/09/06 11:02:19;;;;;;;8.57;7.80;;;28.70;99.90;;;;;;5009958;28;20045;-73
2023/09/06 11:05:04;;;;;;;9.38;8.57;;;29.00;99.90;;;;;;5010799;28;20042;-73
2023/09/06 11:07:40;;;;;;;9.10;8.30;;;29.20;99.90;;;;;;4990485;28;20050;-72
2023/09/06 11:10:22;;;;;;;9.15;8.35;;;29.50;99.90;;;;;;4992947;28;20437;-73
2023/09/06 11:12:53;;;;;;;10.10;7.60;;;29.70;99.90;;;;;;5009538;28;20048;-72
2023/09/06 11:15:23;;;;;;;8.98;8.18;;;29.80;99.90;;;;;;4993656;28;20050;-71
2023/09/06 11:17:56;;;;;;;9.05;8.07;;;29.90;98.20;;;;;;4992515;28;20139;-71
2023/09/06 11:20:24;;;;;;;8.30;7.60;;;30.00;96.00;;;;;;5010713;28;20045;-71
2023/09/06 11:22:53;;;;;;;8.32;7.40;;;30.30;95.30;;;;;;4992531;28;20050;-72
2023/09/06 11:25:25;;;;;;;8.13;7.32;;;30.50;93.60;;;;;;5007566;28;20107;-71
2023/09/06 11:27:58;;;;;;;7.78;7.18;;;30.60;91.30;;;;;;4989139;28;20429;-73
2023/09/06 11:30:27;;;;;;;8.45;7.75;;;30.90;90.90;;;;;;4992513;28;20108;-73
2023/09/06 11:32:55;;;;;;;8.48;7.68;;;31.20;90.40;;;;;;4996822;28;20141;-73
2023/09/06 11:35:33;;;;;;;9.25;8.35;;;31.50;90.50;;;;;;4965896;28;20053;-74
2023/09/06 11:38:02;;;;;;;9.55;8.75;;;31.60;90.40;;;;;;5009447;28;20042;-72
2023/09/06 11:40:34;;;;;;;9.52;8.73;;;31.70;90.10;;;;;;4991680;28;20080;-72
2023/09/06 11:43:10;;;;;;;9.60;8.60;;;31.80;90.20;;;;;;4991548;28;20046;-73
2023/09/06 11:45:41;;;;;;;9.30;8.40;;;32.10;90.00;;;;;;5008819;28;20376;-72
2023/09/06 11:48:09;;;;;;;9.30;8.50;;;32.40;88.70;;;;;;5009445;28;20141;-72
2023/09/06 11:50:40;;;;;;;9.63;8.73;;;32.50;89.30;;;;;;5008122;28;20321;-72
2023/09/06 11:53:09;;;;;;;;;;;33.00;89.80;;;;;;4979135;28;20050;-72
2023/09/06 11:55:41;;;;;;;9.02;8.23;;;33.10;88.50;;;;;;4992139;28;19944;-72
2023/09/06 11:58:21;;;;;;;10.23;9.13;;;33.60;87.00;;;;;;4975530;28;20057;-73
2023/09/06 12:00:50;;;;;;;9.15;8.45;;;33.70;84.30;;;;;;5006505;28;20053;-72
2023/09/06 12:03:26;;;;;;;9.75;8.98;;;34.10;83.20;;;;;;5009851;28;20148;-73
2023/09/06 12:05:56;;;;;;;9.73;8.73;;;34.20;82.10;;;;;;4991589;28;20046;-73
2023/09/06 12:08:24;;;;;;;9.27;8.50;;;34.20;81.90;;;;;;5010473;28;20631;-73
2023/09/06 12:10:54;;;;;;;8.85;8.05;;;34.50;80.10;;;;;;5006611;28;20515;-72
2023/09/06 12:13:29;;;;;;;9.98;9.10;;;34.70;79.30;;;;;;4975753;28;20064;-72
2023/09/06 12:15:58;;;;;;;8.43;7.72;;;34.80;78.20;;;;;;4988544;28;20042;-72
2023/09/06 12:18:28;;;;;;;9.07;8.27;;;35.10;76.70;;;;;;5008589;28;20581;-72
2023/09/06 12:20:57;;;;;;;8.82;7.88;;;35.30;76.90;;;;;;4989542;28;20053;-73
2023/09/06 12:23:28;;;;;;;9.20;8.32;;;35.70;76.00;;;;;;5010264;28;20394;-73
2023/09/06 12:26:01;;;;;;;9.35;8.45;;;35.60;74.90;;;;;;4994764;28;20416;-71
2023/09/06 12:28:29;;;;;;;8.90;8.23;;;35.90;74.50;;;;;;5002200;28;20206;-70
2023/09/06 12:31:00;;;;;;;8.80;8.00;;;36.30;73.30;;;;;;4992200;28;20132;-73
2023/09/06 12:33:28;;;;;;;9.37;8.53;;;36.70;72.10;;;;;;5006927;28;20058;-73
2023/09/06 12:35:59;;;;;;;9.15;8.35;;;37.10;70.20;;;;;;5010178;28;20501;-73
2023/09/06 12:38:28;;;;;;;8.95;8.10;;;37.40;69.70;;;;;;4991930;28;20046;-73
2023/09/06 12:40:57;;;;;;;8.50;7.63;;;37.10;68.40;;;;;;5005023;28;20080;-72
2023/09/06 12:43:26;;;;;;;9.13;8.20;;;36.90;68.50;;;;;;5009258;28;20073;-72
2023/09/06 12:45:54;;;;;;;8.52;7.70;;;36.90;68.20;;;;;;4989810;28;20072;-71
2023/09/06 12:48:22;;;;;;;8.80;8.10;;;36.90;68.20;;;;;;5006004;28;20050;-72
2023/09/06 12:50:50;;;;;;;8.30;7.63;;;37.20;67.70;;;;;;5005728;28;20307;-72
2023/09/06 12:53:22;;;;;;;8.93;8.15;;;37.50;66.30;;;;;;5008423;28;20049;-72
2023/09/06 12:55:50;;;;;;;9.57;8.48;;;38.00;65.50;;;;;;4988874;28;20465;-72
2023/09/06 12:58:18;;;;;;;8.93;8.07;;;37.80;63.80;;;;;;4990146;28;20058;-72